createdAt,value
2022-08-17T00:00:15.766Z,11.93
2022-08-17T00:03:00.331Z,13.38
2022-08-17T00:05:31.361Z,13.10
2022-08-17T00:07:58.445Z,12.70
2022-08-17T00:10:25.078Z,12.18
2022-08-17T00:12:53.108Z,12.23
2022-08-17T00:15:19.830Z,12.30
2022-08-17T00:17:46.334Z,11.82
2022-08-17T00:20:12.724Z,12.93
2022-08-17T00:22:39.121Z,12.88
2022-08-17T00:25:05.558Z,12.13
2022-08-17T00:27:31.885Z,12.52
2022-08-17T00:29:58.399Z,11.85
2022-08-17T00:33:13.920Z,12.68
2022-08-17T00:35:11.335Z,11.90
2022-08-17T00:37:37.666Z,12.25
2022-08-17T00:40:03.999Z,12.48
2022-08-17T00:42:31.381Z,11.35
2022-08-17T00:44:57.873Z,13.18
2022-08-17T00:47:24.374Z,11.95
2022-08-17T00:49:50.907Z,12.07
2022-08-17T00:52:17.357Z,11.80
2022-08-17T00:54:44.905Z,11.70
2022-08-17T00:57:11.202Z,11.65
2022-08-17T00:59:37.844Z,11.82
2022-08-17T01:02:04.482Z,12.13
2022-08-17T01:04:31.401Z,12.02
2022-08-17T01:06:57.895Z,11.38
2022-08-17T01:09:24.431Z,10.85
2022-08-17T01:11:50.858Z,12.05
2022-08-17T01:14:19.854Z,11.20
2022-08-17T01:16:46.263Z,11.40
2022-08-17T01:19:12.770Z,12.70
2022-08-17T01:21:39.306Z,13.27
2022-08-17T01:24:05.721Z,13.32
2022-08-17T01:26:33.254Z,12.27
2022-08-17T01:28:59.795Z,11.60
2022-08-17T01:31:26.242Z,11.73
2022-08-17T01:33:52.743Z,12.07
2022-08-17T01:36:19.366Z,11.73
2022-08-17T01:38:45.984Z,11.30
2022-08-17T01:41:12.488Z,12.18
2022-08-17T01:43:39.087Z,12.27
2022-08-17T01:46:05.913Z,12.02
2022-08-17T01:48:32.850Z,12.35
2022-08-17T01:50:59.259Z,12.32
2022-08-17T01:53:25.654Z,11.65
2022-08-17T01:55:52.179Z,13.05
2022-08-17T01:58:20.575Z,12.50
2022-08-17T02:01:00.044Z,12.40
2022-08-17T02:03:27.800Z,11.27
2022-08-17T02:05:54.143Z,11.98
2022-08-17T02:08:20.710Z,11.50
2022-08-17T02:11:04.025Z,12.25
2022-08-17T02:13:37.853Z,12.10
2022-08-17T02:16:10.562Z,12.43
2022-08-17T02:18:36.975Z,10.77
2022-08-17T02:21:03.498Z,12.23
2022-08-17T02:23:29.889Z,12.45
2022-08-17T02:25:56.229Z,11.02
2022-08-17T02:28:22.602Z,11.48
2022-08-17T02:31:01.462Z,11.18
2022-08-17T02:33:42.110Z,10.73
2022-08-17T02:36:09.699Z,12.57
2022-08-17T02:38:36.179Z,12.02
2022-08-17T02:41:02.626Z,12.15
2022-08-17T02:43:30.241Z,11.40
2022-08-17T02:45:56.622Z,11.52
2022-08-17T02:48:30.992Z,11.00
2022-08-17T02:50:58.052Z,11.88
2022-08-17T02:53:24.605Z,12.23
2022-08-17T02:55:52.127Z,12.35
2022-08-17T02:58:35.031Z,12.10
2022-08-17T03:01:02.129Z,11.57
2022-08-17T03:03:30.320Z,11.13
2022-08-17T03:06:00.941Z,11.50
2022-08-17T03:08:28.771Z,12.00
2022-08-17T03:10:55.112Z,11.63
2022-08-17T03:13:21.423Z,12.18
2022-08-17T03:15:48.062Z,11.48
2022-08-17T03:18:24.257Z,11.57
2022-08-17T03:20:51.652Z,12.35
2022-08-17T03:23:23.710Z,11.40
2022-08-17T03:25:53.157Z,11.60
2022-08-17T03:28:20.040Z,12.00
2022-08-17T03:30:46.507Z,12.10
2022-08-17T03:33:12.887Z,11.93
2022-08-17T03:35:40.983Z,10.88
2022-08-17T03:38:07.345Z,10.85
2022-08-17T03:40:55.403Z,12.13
2022-08-17T03:43:20.392Z,11.20
2022-08-17T03:45:46.861Z,11.77
2022-08-17T03:48:13.343Z,11.90
2022-08-17T03:50:39.734Z,11.63
2022-08-17T03:53:06.281Z,11.23
2022-08-17T03:55:36.316Z,11.27
2022-08-17T03:58:03.062Z,11.23
2022-08-17T04:00:29.597Z,11.15
2022-08-17T04:02:57.274Z,11.43
2022-08-17T04:05:23.721Z,11.88
2022-08-17T04:07:50.267Z,12.23
2022-08-17T04:10:16.742Z,10.88
2022-08-17T04:12:43.135Z,11.98
2022-08-17T04:15:09.705Z,11.07
2022-08-17T04:17:36.109Z,11.45
2022-08-17T04:20:05.158Z,11.57
2022-08-17T04:22:34.208Z,11.15
2022-08-17T04:25:01.293Z,11.55
2022-08-17T04:27:27.761Z,10.68
2022-08-17T04:29:56.119Z,10.90
2022-08-17T04:33:03.409Z,11.43
2022-08-17T04:35:09.274Z,11.07
2022-08-17T04:37:35.674Z,11.65
2022-08-17T04:40:04.269Z,11.18
2022-08-17T04:42:31.310Z,11.65
2022-08-17T04:44:57.675Z,11.93
2022-08-17T04:47:24.567Z,11.48
2022-08-17T04:49:51.141Z,11.02
2022-08-17T04:52:32.316Z,11.60
2022-08-17T04:55:03.842Z,11.65
2022-08-17T04:57:30.506Z,10.65
2022-08-17T05:00:06.308Z,10.43
2022-08-17T05:02:32.773Z,10.80
2022-08-17T05:04:59.404Z,11.13
2022-08-17T05:07:31.315Z,11.50
2022-08-17T05:09:58.014Z,11.52
2022-08-17T05:12:24.369Z,11.55
2022-08-17T05:14:50.966Z,11.55
2022-08-17T05:17:17.387Z,11.23
2022-08-17T05:19:51.738Z,11.13
2022-08-17T05:22:18.495Z,10.77
2022-08-17T05:24:53.468Z,11.05
2022-08-17T05:27:20.660Z,10.80
2022-08-17T05:29:46.964Z,11.05
2022-08-17T05:32:38.643Z,13.48
2022-08-17T05:35:00.271Z,12.52
2022-08-17T05:37:27.279Z,12.50
2022-08-17T05:39:53.760Z,14.70
2022-08-17T05:42:20.178Z,13.75
2022-08-17T05:44:46.480Z,16.92
2022-08-17T05:47:12.824Z,17.48
2022-08-17T05:49:39.167Z,14.10
2022-08-17T05:52:05.778Z,17.73
2022-08-17T05:54:32.085Z,13.52
2022-08-17T05:56:58.499Z,13.38
2022-08-17T05:59:24.938Z,13.45
2022-08-17T06:01:51.466Z,13.25
2022-08-17T06:04:17.788Z,12.95
2022-08-17T06:06:44.181Z,13.98
2022-08-17T06:09:10.455Z,15.20
2022-08-17T06:11:37.206Z,15.13
2022-08-17T06:14:03.754Z,15.25
2022-08-17T06:16:33.376Z,14.07
2022-08-17T06:19:00.888Z,14.32
2022-08-17T06:21:27.485Z,13.65
2022-08-17T06:23:58.578Z,14.38
2022-08-17T06:26:25.811Z,14.65
2022-08-17T06:28:56.733Z,14.27
2022-08-17T06:31:23.162Z,13.90
2022-08-17T06:33:49.694Z,14.52
2022-08-17T06:36:16.225Z,14.65
2022-08-17T06:38:42.667Z,14.43
2022-08-17T06:41:09.215Z,14.40
2022-08-17T06:43:35.624Z,15.07
2022-08-17T06:46:02.095Z,14.75
2022-08-17T06:48:30.724Z,14.93
2022-08-17T06:50:57.217Z,14.38
2022-08-17T06:53:23.733Z,14.23
2022-08-17T06:55:50.076Z,15.32
2022-08-17T06:58:16.986Z,14.85
2022-08-17T07:00:43.534Z,15.65
2022-08-17T07:03:10.333Z,16.17
2022-08-17T07:05:37.153Z,16.38
2022-08-17T07:08:05.052Z,16.10
2022-08-17T07:10:31.438Z,16.50
2022-08-17T07:12:57.883Z,16.30
2022-08-17T07:15:24.543Z,16.15
2022-08-17T07:17:51.017Z,17.17
2022-08-17T07:20:17.563Z,18.45
2022-08-17T07:22:57.730Z,17.48
2022-08-17T07:25:27.003Z,18.02
2022-08-17T07:27:53.447Z,17.95
2022-08-17T07:30:20.113Z,18.80
2022-08-17T07:32:46.457Z,20.17
2022-08-17T07:35:15.456Z,18.67
2022-08-17T07:37:42.266Z,19.10
2022-08-17T07:40:15.850Z,19.13
2022-08-17T07:42:46.727Z,19.30
2022-08-17T07:45:13.520Z,20.27
2022-08-17T07:47:39.903Z,19.23
2022-08-17T07:50:06.913Z,20.10
2022-08-17T07:52:51.049Z,19.80
2022-08-17T07:55:18.683Z,19.27
2022-08-17T07:57:45.089Z,18.38
2022-08-17T08:00:15.310Z,17.38
2022-08-17T08:02:42.919Z,19.00
2022-08-17T08:05:10.140Z,19.25
2022-08-17T08:07:36.469Z,19.17
2022-08-17T08:10:02.984Z,17.80
2022-08-17T08:12:33.701Z,18.52
2022-08-17T08:15:00.351Z,17.40
2022-08-17T08:17:27.183Z,18.27
2022-08-17T08:19:53.875Z,18.17
2022-08-17T08:22:20.195Z,19.23
2022-08-17T08:24:46.665Z,19.20
2022-08-17T08:27:13.016Z,20.17
2022-08-17T08:29:39.615Z,19.33
2022-08-17T08:32:05.924Z,18.13
2022-08-17T08:34:53.449Z,18.83
2022-08-17T08:37:27.475Z,20.25
2022-08-17T08:39:59.226Z,19.25
2022-08-17T08:42:27.125Z,19.80
2022-08-17T08:44:59.681Z,18.35
2022-08-17T08:47:30.610Z,19.27
2022-08-17T08:50:04.503Z,19.70
2022-08-17T08:52:31.806Z,17.60
2022-08-17T08:54:58.311Z,20.10
2022-08-17T08:57:30.961Z,19.35
2022-08-17T09:00:00.044Z,21.08
2022-08-17T09:02:26.543Z,22.42
2022-08-17T09:05:13.463Z,22.17
2022-08-17T09:07:39.178Z,22.40
2022-08-17T09:10:05.896Z,22.90
2022-08-17T09:12:33.188Z,22.83
2022-08-17T09:14:59.614Z,23.25
2022-08-17T09:17:25.928Z,22.45
2022-08-17T09:19:52.359Z,22.05
2022-08-17T09:22:18.836Z,22.17
2022-08-17T09:24:45.316Z,22.48
2022-08-17T09:27:11.583Z,23.55
2022-08-17T09:29:38.206Z,22.75
2022-08-17T09:32:04.532Z,21.63
2022-08-17T09:34:33.054Z,22.92
2022-08-17T09:36:59.495Z,22.58
2022-08-17T09:39:26.082Z,22.52
2022-08-17T09:41:52.494Z,22.65
2022-08-17T09:44:22.645Z,22.65
2022-08-17T09:46:50.289Z,23.27
2022-08-17T09:49:23.180Z,22.05
2022-08-17T09:51:51.546Z,20.90
2022-08-17T09:54:37.961Z,23.35
2022-08-17T09:57:27.924Z,23.40
2022-08-17T09:59:50.875Z,22.23
2022-08-17T10:02:17.455Z,21.35
2022-08-17T10:04:43.990Z,21.90
2022-08-17T10:07:10.380Z,22.30
2022-08-17T10:09:36.682Z,23.33
2022-08-17T10:12:04.012Z,20.58
2022-08-17T10:14:36.758Z,21.50
2022-08-17T10:17:04.492Z,21.35
2022-08-17T10:19:31.149Z,21.17
2022-08-17T10:22:00.933Z,21.23
2022-08-17T10:24:28.327Z,22.20
2022-08-17T10:26:56.662Z,20.52
2022-08-17T10:29:23.859Z,20.50
2022-08-17T10:31:53.512Z,20.63
2022-08-17T10:34:19.787Z,21.13
2022-08-17T10:36:46.142Z,21.33
2022-08-17T10:39:12.497Z,20.63
2022-08-17T10:41:40.486Z,20.35
2022-08-17T10:44:39.217Z,22.33
2022-08-17T10:46:53.333Z,20.08
2022-08-17T10:49:19.662Z,20.45
2022-08-17T10:51:46.486Z,20.45
2022-08-17T10:54:22.301Z,20.52
2022-08-17T10:56:48.704Z,21.40
2022-08-17T10:59:15.034Z,19.90
2022-08-17T11:01:41.442Z,20.73
2022-08-17T11:04:07.736Z,20.73
2022-08-17T11:06:34.363Z,20.77
2022-08-17T11:09:00.749Z,20.48
2022-08-17T11:11:27.153Z,19.63
2022-08-17T11:13:53.534Z,20.17
2022-08-17T11:16:19.911Z,20.52
2022-08-17T11:18:47.287Z,20.38
2022-08-17T11:21:13.851Z,19.73
2022-08-17T11:23:40.354Z,18.33
2022-08-17T11:26:06.647Z,20.08
2022-08-17T11:28:32.970Z,20.55
2022-08-17T11:30:59.340Z,20.08
2022-08-17T11:33:26.750Z,20.15
2022-08-17T11:35:53.379Z,20.23
2022-08-17T11:38:19.943Z,20.38
2022-08-17T11:40:46.405Z,20.02
2022-08-17T11:43:12.779Z,20.58
2022-08-17T11:45:40.397Z,20.05
2022-08-17T11:48:27.177Z,20.27
2022-08-17T11:50:53.178Z,19.15
2022-08-17T11:53:19.741Z,20.10
2022-08-17T11:55:46.185Z,19.65
2022-08-17T11:58:12.814Z,20.67
2022-08-17T12:00:39.314Z,20.63
2022-08-17T12:03:06.229Z,19.92
2022-08-17T12:05:32.942Z,20.17
2022-08-17T12:07:59.260Z,20.48
2022-08-17T12:10:25.621Z,19.20
2022-08-17T12:12:53.218Z,20.70
2022-08-17T12:15:19.522Z,21.60
2022-08-17T12:17:45.860Z,21.08
2022-08-17T12:20:12.858Z,20.65
2022-08-17T12:22:39.388Z,19.38
2022-08-17T12:25:06.415Z,20.95
2022-08-17T12:27:52.992Z,21.77
2022-08-17T12:30:19.258Z,21.13
2022-08-17T12:32:45.708Z,21.65
2022-08-17T12:35:12.027Z,22.30
2022-08-17T12:37:38.323Z,21.23
2022-08-17T12:40:04.886Z,21.08
2022-08-17T12:42:31.349Z,22.90
2022-08-17T12:44:59.070Z,20.90
2022-08-17T12:47:25.470Z,20.65
2022-08-17T12:49:55.810Z,20.23
2022-08-17T12:52:22.292Z,20.27
2022-08-17T12:54:48.749Z,20.73
2022-08-17T12:57:15.087Z,20.80
2022-08-17T12:59:41.664Z,20.60
2022-08-17T13:02:08.376Z,20.85
2022-08-17T13:04:35.099Z,20.05
2022-08-17T13:07:01.538Z,19.40
2022-08-17T13:09:35.691Z,19.77
2022-08-17T13:12:06.362Z,19.77
2022-08-17T13:14:34.194Z,20.77
2022-08-17T13:17:00.754Z,19.73
2022-08-17T13:19:39.693Z,19.50
2022-08-17T13:22:08.166Z,19.65
2022-08-17T13:24:38.391Z,20.38
2022-08-17T13:27:08.107Z,20.40
2022-08-17T13:29:35.122Z,20.10
2022-08-17T13:32:04.385Z,19.20
2022-08-17T13:34:31.530Z,20.10
2022-08-17T13:36:59.697Z,19.40
2022-08-17T13:39:26.875Z,20.17
2022-08-17T13:41:54.270Z,18.15
2022-08-17T13:44:20.693Z,18.75
2022-08-17T13:46:47.346Z,19.45
2022-08-17T13:49:19.373Z,19.88
2022-08-17T13:51:45.746Z,17.40
2022-08-17T13:54:12.101Z,17.40
2022-08-17T13:56:39.495Z,17.65
2022-08-17T13:59:06.285Z,18.67
2022-08-17T14:01:32.744Z,18.20
2022-08-17T14:03:59.511Z,18.27
2022-08-17T14:06:52.334Z,17.45
2022-08-17T14:09:12.223Z,18.33
2022-08-17T14:11:38.647Z,17.95
2022-08-17T14:14:05.192Z,18.30
2022-08-17T14:16:31.842Z,19.38
2022-08-17T14:18:58.213Z,20.02
2022-08-17T14:21:24.623Z,19.20
2022-08-17T14:23:54.570Z,18.35
2022-08-17T14:26:21.659Z,18.25
2022-08-17T14:28:56.247Z,19.75
2022-08-17T14:31:23.125Z,18.90
2022-08-17T14:33:49.458Z,19.40
2022-08-17T14:36:15.809Z,19.30
2022-08-17T14:38:42.438Z,19.20
2022-08-17T14:41:08.833Z,18.73
2022-08-17T14:43:35.179Z,17.90
2022-08-17T14:46:01.674Z,19.27
2022-08-17T14:48:28.606Z,18.58
2022-08-17T14:50:55.078Z,19.00
2022-08-17T14:53:21.566Z,18.95
2022-08-17T14:55:47.957Z,18.92
2022-08-17T14:58:15.070Z,20.67
2022-08-17T15:00:41.417Z,19.80
2022-08-17T15:03:08.115Z,20.00
2022-08-17T15:05:34.825Z,20.80
2022-08-17T15:08:01.491Z,20.52
2022-08-17T15:10:27.858Z,20.67
2022-08-17T15:12:54.250Z,21.20
2022-08-17T15:15:20.621Z,20.50
2022-08-17T15:17:46.979Z,20.88
2022-08-17T15:20:15.000Z,20.75
2022-08-17T15:22:41.818Z,19.83
2022-08-17T15:25:08.211Z,20.50
2022-08-17T15:27:34.936Z,19.67
2022-08-17T15:30:01.316Z,21.15
2022-08-17T15:32:27.732Z,20.63
2022-08-17T15:34:54.294Z,20.13
2022-08-17T15:37:20.937Z,19.55
2022-08-17T15:39:48.715Z,19.08
2022-08-17T15:42:15.032Z,19.55
2022-08-17T15:44:41.463Z,19.88
2022-08-17T15:47:07.892Z,19.02
2022-08-17T15:49:34.234Z,19.45
2022-08-17T15:52:00.583Z,19.67
2022-08-17T15:54:26.962Z,19.33
2022-08-17T15:57:00.921Z,19.27
2022-08-17T15:59:27.704Z,19.20
2022-08-17T16:03:15.301Z,18.60
2022-08-17T16:04:43.880Z,19.67
2022-08-17T16:07:10.567Z,18.55
2022-08-17T16:09:37.605Z,18.20
2022-08-17T16:12:03.990Z,17.67
2022-08-17T16:14:33.781Z,18.17
2022-08-17T16:17:01.790Z,18.13
2022-08-17T16:19:28.225Z,17.48
2022-08-17T16:21:54.978Z,18.05
2022-08-17T16:24:21.633Z,18.25
2022-08-17T16:26:47.935Z,18.60
2022-08-17T16:29:14.476Z,18.58
2022-08-17T16:31:40.877Z,17.50
2022-08-17T16:34:17.284Z,18.35
2022-08-17T16:36:54.812Z,17.05
2022-08-17T16:39:22.333Z,18.10
2022-08-17T16:41:49.021Z,17.13
2022-08-17T16:44:15.760Z,17.65
2022-08-17T16:46:45.615Z,18.02
2022-08-17T16:49:12.434Z,18.20
2022-08-17T16:51:54.074Z,17.27
2022-08-17T16:54:22.930Z,17.40
2022-08-17T16:56:49.283Z,16.70
2022-08-17T16:59:30.978Z,17.10
2022-08-17T17:02:02.513Z,17.65
2022-08-17T17:04:28.996Z,16.52
2022-08-17T17:07:01.802Z,16.55
2022-08-17T17:09:28.298Z,16.50
2022-08-17T17:11:54.786Z,17.38
2022-08-17T17:14:21.117Z,17.48
2022-08-17T17:16:47.481Z,15.73
2022-08-17T17:19:13.965Z,15.65
2022-08-17T17:21:40.775Z,16.27
2022-08-17T17:24:07.231Z,16.85
2022-08-17T17:26:33.890Z,15.95
2022-08-17T17:29:00.312Z,16.63
2022-08-17T17:31:26.896Z,15.48
2022-08-17T17:33:53.216Z,16.27
2022-08-17T17:36:19.710Z,15.25
2022-08-17T17:38:46.092Z,15.00
2022-08-17T17:41:12.470Z,15.38
2022-08-17T17:43:40.583Z,16.08
2022-08-17T17:46:27.175Z,16.58
2022-08-17T17:48:54.090Z,15.90
2022-08-17T17:52:03.618Z,15.32
2022-08-17T17:54:06.858Z,14.73
2022-08-17T17:56:42.982Z,15.18
2022-08-17T17:59:12.619Z,16.25
2022-08-17T18:01:39.520Z,14.70
2022-08-17T18:04:07.082Z,15.70
2022-08-17T18:06:45.330Z,15.33
2022-08-17T18:09:11.698Z,16.10
2022-08-17T18:11:45.915Z,15.75
2022-08-17T18:14:18.531Z,15.63
2022-08-17T18:16:44.910Z,16.20
2022-08-17T18:19:11.250Z,15.57
2022-08-17T18:21:37.992Z,15.75
2022-08-17T18:24:04.345Z,16.13
2022-08-17T18:26:30.750Z,15.45
2022-08-17T18:28:58.537Z,15.73
2022-08-17T18:31:25.018Z,15.57
2022-08-17T18:33:52.789Z,15.23
2022-08-17T18:36:19.221Z,14.50
2022-08-17T18:38:45.623Z,15.25
2022-08-17T18:41:12.010Z,15.88
2022-08-17T18:43:43.943Z,14.32
2022-08-17T18:46:28.219Z,15.02
2022-08-17T18:48:55.795Z,15.45
2022-08-17T18:54:08.917Z,14.93
2022-08-17T18:56:35.218Z,15.10
2022-08-17T18:59:01.581Z,14.80
2022-08-17T19:01:42.071Z,14.50
2022-08-17T19:04:14.811Z,15.55
2022-08-17T19:06:41.185Z,15.27
2022-08-17T19:09:10.536Z,15.48
2022-08-17T19:11:36.958Z,15.18
2022-08-17T19:14:03.418Z,15.20
2022-08-17T19:16:29.756Z,15.60
2022-08-17T19:18:56.113Z,14.85
2022-08-17T19:21:23.179Z,15.38
2022-08-17T19:23:53.877Z,15.07
2022-08-17T19:26:54.747Z,15.20
2022-08-17T19:29:07.266Z,15.32
2022-08-17T19:31:33.727Z,15.57
2022-08-17T19:34:00.088Z,15.05
2022-08-17T19:36:26.718Z,14.75
2022-08-17T19:38:53.313Z,15.57
2022-08-17T19:41:19.664Z,15.93
2022-08-17T19:43:46.153Z,14.48
2022-08-17T19:46:12.659Z,15.07
2022-08-17T19:48:38.977Z,15.20
2022-08-17T19:51:05.336Z,14.05
2022-08-17T19:53:47.789Z,14.85
2022-08-17T19:56:18.135Z,15.10
2022-08-17T19:58:44.730Z,14.73
2022-08-17T20:01:11.559Z,14.50
2022-08-17T20:03:38.011Z,14.65
2022-08-17T20:06:13.511Z,14.75
2022-08-17T20:08:40.591Z,14.48
2022-08-17T20:11:06.966Z,14.50
2022-08-17T20:13:34.046Z,14.63
2022-08-17T20:16:00.532Z,14.43
2022-08-17T20:18:26.904Z,14.20
2022-08-17T20:20:54.794Z,14.25
2022-08-17T20:23:22.246Z,13.93
2022-08-17T20:25:48.612Z,14.95
2022-08-17T20:28:14.982Z,14.40
2022-08-17T20:30:41.341Z,13.93
2022-08-17T20:33:08.302Z,15.05
2022-08-17T20:35:39.610Z,14.18
2022-08-17T20:38:05.950Z,14.48
2022-08-17T20:40:32.460Z,13.90
2022-08-17T20:42:58.981Z,14.60
2022-08-17T20:45:28.987Z,14.45
2022-08-17T20:48:20.093Z,14.63
2022-08-17T20:50:42.150Z,13.93
2022-08-17T20:53:08.570Z,12.95
2022-08-17T20:55:34.959Z,14.10
2022-08-17T20:58:01.369Z,13.68
2022-08-17T21:00:27.744Z,14.35
2022-08-17T21:02:54.293Z,13.60
2022-08-17T21:05:20.576Z,13.80
2022-08-17T21:07:47.007Z,14.55
2022-08-17T21:10:13.669Z,13.00
2022-08-17T21:12:40.480Z,14.40
2022-08-17T21:15:06.906Z,13.90
2022-08-17T21:17:33.289Z,13.75
2022-08-17T21:20:11.023Z,13.98
2022-08-17T21:22:38.189Z,14.00
2022-08-17T21:25:06.874Z,13.85
2022-08-17T21:27:33.233Z,14.63
2022-08-17T21:29:59.788Z,13.77
2022-08-17T21:32:26.823Z,13.13
2022-08-17T21:34:53.223Z,13.40
2022-08-17T21:37:19.726Z,13.43
2022-08-17T21:39:46.577Z,13.93
2022-08-17T21:42:12.968Z,13.55
2022-08-17T21:44:39.302Z,14.02
2022-08-17T21:47:05.989Z,12.70
2022-08-17T21:49:34.990Z,13.45
2022-08-17T21:52:04.510Z,13.15
2022-08-17T21:54:30.866Z,13.15
2022-08-17T21:56:57.257Z,13.68
2022-08-17T21:59:23.850Z,13.25
2022-08-17T22:04:20.400Z,13.30
2022-08-17T22:06:57.321Z,13.00
2022-08-17T22:09:24.223Z,13.10
2022-08-17T22:11:50.606Z,12.88
2022-08-17T22:14:18.318Z,12.95
2022-08-17T22:16:47.749Z,13.17
2022-08-17T22:19:14.154Z,12.93
2022-08-17T22:21:40.813Z,13.60
2022-08-17T22:24:07.234Z,13.43
2022-08-17T22:26:33.711Z,14.43
2022-08-17T22:29:00.472Z,12.52
2022-08-17T22:31:28.185Z,12.80
2022-08-17T22:33:54.783Z,12.50
2022-08-17T22:36:22.118Z,12.45
2022-08-17T22:38:48.544Z,12.85
2022-08-17T22:41:14.936Z,13.10
2022-08-17T22:43:41.518Z,12.90
2022-08-17T22:46:11.072Z,12.65
2022-08-17T22:48:37.393Z,12.82
2022-08-17T22:51:03.726Z,12.15
2022-08-17T22:53:39.422Z,12.68
2022-08-17T22:56:05.783Z,12.52
2022-08-17T22:58:32.244Z,12.45
2022-08-17T23:00:58.640Z,12.77
2022-08-17T23:03:25.068Z,13.45
2022-08-17T23:05:51.612Z,13.23
2022-08-17T23:08:17.962Z,12.68
2022-08-17T23:10:44.310Z,13.05
2022-08-17T23:13:10.881Z,13.43
2022-08-17T23:15:37.243Z,11.88
2022-08-17T23:18:03.837Z,13.10
2022-08-17T23:20:30.177Z,12.48
2022-08-17T23:22:56.733Z,12.02
2022-08-17T23:25:23.095Z,12.50
2022-08-17T23:27:49.784Z,12.75
2022-08-17T23:30:16.456Z,12.43
2022-08-17T23:32:47.389Z,12.73
2022-08-17T23:35:39.258Z,12.35
2022-08-17T23:38:07.131Z,11.95
2022-08-17T23:40:33.705Z,12.10
2022-08-17T23:43:00.046Z,12.60
2022-08-17T23:45:31.197Z,13.07
2022-08-17T23:47:58.040Z,12.23
2022-08-17T23:50:24.489Z,12.82
2022-08-17T23:52:56.288Z,11.85
2022-08-17T23:55:22.720Z,12.57
2022-08-17T23:57:49.444Z,12.32
